Time;durP1;ratioP1;P1;durP2;ratioP2;P2;SDS_P1;SDS_P2;PMS_P1;PMS_P2;Temp;Humidity;BMP_temperature;BMP_pressure;BME280_temperature;BME280_humidity;BME280_pressure;Samples;Min_cycle;Max_cycle;Signal;HPM_P1;HPM_P2
2022/09/23 18:06:19;;;;;;;;;6.50;6.25;;;;;21.60;37.59;100622.06;4870431;23;46773;-77
2022/09/23 18:08:49;;;;;;;;;6.75;5.75;;;;;21.56;37.40;100615.44;4853564;29;46048;-75
2022/09/23 18:11:22;;;;;;;;;8.00;7.00;;;;;21.55;37.27;100614.59;4872615;29;45792;-75
2022/09/23 18:14:03;;;;;;;;;6.75;6.00;;;;;21.54;37.54;100620.94;4873703;29;46936;-77
2022/09/23 18:16:34;;;;;;;;;8.25;8.25;;;;;21.42;37.45;100598.41;4876208;29;47244;-74
2022/09/23 18:19:02;;;;;;;;;9.00;8.00;;;;;21.48;37.51;100612.84;4871688;29;45811;-76
2022/09/23 18:21:34;;;;;;;;;7.00;6.25;;;;;21.43;37.18;100617.91;4862325;29;45912;-78
2022/09/23 18:24:02;;;;;;;;;8.00;7.00;;;;;21.37;37.53;100613.28;4858023;29;46328;-79
2022/09/23 18:26:27;;;;;;;;;6.75;6.25;;;;;21.40;37.33;100621.72;4872332;29;47373;-75
2022/09/23 18:29:00;;;;;;;;;7.00;6.25;;;;;21.39;37.74;100619.25;4872974;29;47262;-77
2022/09/23 18:31:33;;;;;;;;;10.25;7.50;;;;;21.31;37.70;100615.66;4871450;29;45962;-77
2022/09/23 18:34:00;;;;;;;;;9.75;8.25;;;;;21.33;37.40;100618.94;4853614;29;46866;-77
2022/09/23 18:36:27;;;;;;;;;7.00;6.50;;;;;21.26;37.57;100610.03;4853323;29;47057;-75
2022/09/23 18:38:52;;;;;;;;;8.75;7.00;;;;;21.26;37.50;100610.03;4870995;29;45797;-76
2022/09/23 18:41:18;;;;;;;;;7.00;6.00;;;;;21.26;37.64;100620.69;4868000;29;45786;-76
2022/09/23 18:43:48;;;;;;;;;8.75;8.00;;;;;21.24;37.66;100621.84;4871427;29;47457;-76
2022/09/23 18:46:19;;;;;;;;;8.50;8.00;;;;;21.23;37.65;100633.53;4870704;29;47067;-76
2022/09/23 18:51:33;;;;;;;;;8.75;8.50;;;;;21.20;37.53;100629.38;4864980;29;45691;-80
2022/09/23 18:54:01;;;;;;;;;7.25;7.25;;;;;21.19;37.52;100627.72;4874260;29;47294;-78
2022/09/23 18:56:36;;;;;;;;;10.25;8.00;;;;;21.16;37.57;100627.25;4867777;29;47228;-79
2022/09/23 18:59:04;;;;;;;;;11.75;9.25;;;;;21.01;37.97;100602.31;4849047;29;46464;-76
2022/09/23 19:01:34;;;;;;;;;10.00;8.25;;;;;21.10;37.74;100622.59;4874728;29;45650;-79
2022/09/23 19:04:01;;;;;;;;;10.25;9.75;;;;;21.12;37.64;100631.22;4865101;29;45794;-77
2022/09/23 19:06:31;;;;;;;;;9.25;8.50;;;;;21.09;37.71;100629.75;4871700;29;46142;-78
2022/09/23 19:08:57;;;;;;;;;9.25;8.75;;;;;21.08;37.77;100636.09;4862109;29;45946;-78
2022/09/23 19:11:23;;;;;;;;;10.75;10.50;;;;;21.00;37.91;100628.13;4856197;29;46059;-77
2022/09/23 19:13:56;;;;;;;;;13.25;11.75;;;;;21.06;37.65;100635.44;4869935;29;46280;-76
2022/09/23 19:16:26;;;;;;;;;9.75;9.50;;;;;21.03;37.49;100630.47;4869912;29;46727;-77
2022/09/23 19:18:54;;;;;;;;;11.75;11.75;;;;;21.01;37.86;100627.13;4874531;29;46541;-76
2022/09/23 19:21:21;;;;;;;;;10.50;10.50;;;;;20.97;37.84;100625.00;4872741;29;45618;-77
2022/09/23 19:23:52;;;;;;;;;7.50;7.50;;;;;20.88;38.07;100618.91;4861357;29;45769;-77
2022/09/23 19:26:21;;;;;;;;;10.00;10.00;;;;;20.84;38.30;100615.75;4866457;29;46835;-77
2022/09/23 19:28:53;;;;;;;;;10.00;9.00;;;;;20.86;38.40;100628.91;4868415;29;45838;-75
2022/09/23 19:31:32;;;;;;;;;10.00;10.00;;;;;20.82;38.32;100628.44;4853754;29;45625;-75
2022/09/23 19:33:58;;;;;;;;;10.75;9.50;;;;;20.80;38.36;100626.94;4867119;29;46445;-76
2022/09/23 19:36:34;;;;;;;;;9.25;8.75;;;;;20.82;38.22;100636.41;4869259;29;46308;-77
2022/09/23 19:39:05;;;;;;;;;10.50;9.50;;;;;20.75;38.14;100618.63;4874776;29;45690;-75
2022/09/23 19:41:32;;;;;;;;;10.50;7.75;;;;;20.78;38.32;100631.63;4873903;29;45747;-76
2022/09/23 19:44:02;;;;;;;;;8.75;7.75;;;;;20.81;38.31;100625.94;4864609;29;46297;-77
2022/09/23 19:46:37;;;;;;;;;8.75;8.00;;;;;20.79;38.49;100631.41;4866824;29;46554;-77
2022/09/23 19:49:05;;;;;;;;;8.75;7.00;;;;;20.77;38.56;100630.78;4849098;29;45736;-75
2022/09/23 19:51:32;;;;;;;;;7.75;7.75;;;;;20.77;38.57;100619.31;4849153;29;45694;-76
2022/09/23 19:54:02;;;;;;;;;8.00;6.25;;;;;20.76;38.47;100618.47;4878132;29;47555;-74
2022/09/23 19:56:28;;;;;;;;;8.00;6.25;;;;;20.70;38.70;100605.84;4877217;29;46099;-75
2022/09/23 19:58:56;;;;;;;;;8.75;8.50;;;;;20.76;38.63;100614.97;4878480;29;45614;-76
2022/09/23 20:01:26;;;;;;;;;7.75;6.75;;;;;20.76;38.53;100620.28;4875455;29;45952;-75
2022/09/23 20:03:52;;;;;;;;;9.75;8.25;;;;;20.76;38.75;100629.13;4871972;29;46591;-77
2022/09/23 20:06:18;;;;;;;;;10.00;9.75;;;;;20.76;38.79;100628.28;4875163;29;47324;-77
2022/09/23 20:08:44;;;;;;;;;9.00;7.25;;;;;20.65;38.61;100600.22;4880733;29;45861;-76
2022/09/23 20:11:16;;;;;;;;;10.25;9.75;;;;;20.71;38.46;100612.00;4851372;29;45679;-79
2022/09/23 20:13:45;;;;;;;;;10.50;10.50;;;;;20.65;38.74;100602.03;4877070;29;46475;-78
2022/09/23 20:16:16;;;;;;;;;10.25;8.50;;;;;20.69;38.49;100608.69;4867821;29;46462;-77
2022/09/23 20:18:43;;;;;;;;;11.00;10.75;;;;;20.75;38.76;100615.97;4871804;29;45821;-77
2022/09/23 20:21:11;;;;;;;;;8.00;7.25;;;;;20.75;38.88;100615.97;4845772;29;45836;-74
2022/09/23 20:23:36;;;;;;;;;11.50;10.50;;;;;20.72;38.66;100608.34;4873178;29;46485;-76
2022/09/23 20:28:47;;;;;;;;;9.75;8.50;;;;;20.69;38.79;100609.50;4875298;29;45778;-77
2022/09/23 20:31:13;;;;;;;;;9.75;9.00;;;;;20.67;38.88;100613.38;4875046;29;45716;-77
2022/09/23 20:33:40;;;;;;;;;10.00;9.00;;;;;20.72;38.81;100617.16;4866531;29;46572;-76
2022/09/23 20:36:10;;;;;;;;;9.00;8.25;;;;;20.63;38.82;100596.88;4871957;29;47148;-75
2022/09/23 20:38:36;;;;;;;;;7.00;7.00;;;;;20.70;38.69;100607.69;4860396;29;46115;-75
2022/09/23 20:41:01;;;;;;;;;8.25;7.75;;;;;20.61;38.83;100601.56;4864851;29;45968;-76
2022/09/23 20:43:33;;;;;;;;;8.50;8.50;;;;;20.55;39.15;100588.97;4853196;29;47439;-76
2022/09/23 20:46:00;;;;;;;;;6.00;5.00;;;;;20.66;38.85;100606.38;4861561;29;47364;-75
2022/09/23 20:48:27;;;;;;;;;6.50;6.50;;;;;20.64;38.47;100595.88;4867915;29;45872;-78
2022/09/23 20:51:01;;;;;;;;;10.00;9.00;;;;;20.69;38.82;100611.34;4874177;29;45981;-77
2022/09/23 20:53:27;;;;;;;;;8.00;7.00;;;;;20.68;38.62;100601.69;4865711;29;45835;-75
2022/09/23 20:55:54;;;;;;;;;11.75;10.50;;;;;20.66;38.76;100607.22;4875448;29;46122;-76
2022/09/23 20:58:25;;;;;;;;;11.50;10.50;;;;;20.42;38.87;100565.53;4874509;29;45720;-76
2022/09/23 21:00:52;;;;;;;;;8.00;7.75;;;;;20.54;38.59;100579.31;4875153;29;46914;-76
2022/09/23 21:03:18;;;;;;;;;9.00;8.00;;;;;20.48;38.99;100566.69;4876137;29;45889;-77
2022/09/23 21:05:46;;;;;;;;;8.00;8.00;;;;;20.56;38.81;100584.47;4875329;29;46333;-76
2022/09/23 21:08:14;;;;;;;;;9.50;7.75;;;;;20.61;38.98;100596.25;4833575;29;46199;-76
2022/09/23 21:10:42;;;;;;;;;7.75;6.50;;;;;20.60;38.91;100597.25;4873953;29;45766;-76
2022/09/23 21:13:07;;;;;;;;;10.75;9.75;;;;;20.59;39.23;100595.59;4863737;29;46885;-77
2022/09/23 21:15:34;;;;;;;;;9.00;9.00;;;;;20.57;38.97;100592.25;4871346;29;46097;-76
2022/09/23 21:17:59;;;;;;;;;12.00;8.25;;;;;20.46;38.94;100580.16;4870332;29;45776;-77
2022/09/23 21:20:27;;;;;;;;;8.75;7.50;;;;;20.56;38.91;100590.63;4855039;29;45851;-76
2022/09/23 21:22:56;;;;;;;;;9.25;9.25;;;;;20.53;39.12;100589.13;4876267;29;46519;-77
2022/09/23 21:25:21;;;;;;;;;11.00;10.25;;;;;20.53;39.02;100585.63;4856328;29;47316;-75
2022/09/23 21:27:51;;;;;;;;;9.25;9.25;;;;;20.54;39.49;100581.97;4860670;29;45868;-77
2022/09/23 21:30:19;;;;;;;;;7.75;7.25;;;;;20.45;39.10;100575.03;4875658;29;46100;-76
2022/09/23 21:32:44;;;;;;;;;9.00;8.50;;;;;20.46;39.38;100576.66;4875572;29;45603;-76
2022/09/23 21:35:09;;;;;;;;;10.75;10.00;;;;;20.43;39.29;100569.88;4872265;29;46421;-75
2022/09/23 21:37:35;;;;;;;;;12.00;11.00;;;;;20.48;39.35;100586.16;4877127;29;45922;-76
2022/09/23 21:42:46;;;;;;;;;12.75;12.25;;;;;20.47;39.42;100596.97;4876526;29;45697;-77
2022/09/23 21:45:11;;;;;;;;;12.25;10.75;;;;;20.41;39.65;100614.44;4843431;29;47055;-75
2022/09/23 21:47:40;;;;;;;;;12.00;10.75;;;;;20.31;39.48;100607.63;4856282;29;45544;-75
2022/09/23 21:50:06;;;;;;;;;9.00;8.75;;;;;20.16;39.79;100607.53;4844371;29;46033;-77
2022/09/23 21:52:32;;;;;;;;;9.00;8.25;;;;;20.07;39.90;100608.56;4865156;29;47424;-77
2022/09/23 21:54:57;;;;;;;;;9.25;9.25;;;;;19.99;39.96;100605.91;4872440;29;45737;-76
2022/09/23 21:57:29;;;;;;;;;11.00;10.00;;;;;19.87;40.70;100613.41;4875933;29;45826;-76
2022/09/23 21:59:54;;;;;;;;;12.75;10.00;;;;;19.79;40.89;100610.78;4862940;29;45809;-75
2022/09/23 22:02:20;;;;;;;;;12.75;12.00;;;;;19.60;41.60;100609.28;4875763;29;46300;-74
2022/09/23 22:04:45;;;;;;;;;11.50;9.25;;;;;19.53;42.16;100604.81;4870587;29;45811;-74
2022/09/23 22:07:10;;;;;;;;;10.75;10.00;;;;;19.36;42.84;100608.44;4865889;29;45751;-75
2022/09/23 22:09:36;;;;;;;;;10.25;10.25;;;;;19.29;43.33;100625.03;4874510;29;45972;-74
2022/09/23 22:12:04;;;;;;;;;11.00;10.25;;;;;19.17;43.99;100620.19;4859680;29;48382;-74
2022/09/23 22:14:30;;;;;;;;;12.50;12.50;;;;;19.07;44.14;100623.00;4868811;29;46313;-75
2022/09/23 22:16:59;;;;;;;;;10.00;9.00;;;;;18.99;44.89;100628.31;4863602;29;46074;-75
2022/09/23 22:19:26;;;;;;;;;11.25;10.75;;;;;18.91;45.16;100632.75;4873625;29;45897;-75
2022/09/23 22:21:52;;;;;;;;;9.00;9.00;;;;;18.78;45.56;100623.47;4863983;29;46474;-75
2022/09/23 22:24:18;;;;;;;;;8.00;7.00;;;;;18.62;46.61;100611.97;4874782;29;46485;-74
2022/09/23 22:26:45;;;;;;;;;13.00;10.50;;;;;18.48;46.36;100604.56;4872804;29;46219;-75
2022/09/23 22:34:45;;;;;;;;;9.50;9.25;;;;;18.34;47.56;100614.78;4868205;29;46072;-75
2022/09/23 22:37:12;;;;;;;;;10.00;9.00;;;;;18.17;48.15;100607.75;4857911;29;45731;-75
2022/09/23 22:39:38;;;;;;;;;10.00;9.00;;;;;18.13;48.33;100611.72;4876407;29;45820;-74
2022/09/23 22:42:04;;;;;;;;;9.50;8.75;;;;;18.08;48.62;100606.06;4868941;29;47157;-75
2022/09/23 22:44:30;;;;;;;;;8.00;7.00;;;;;17.99;48.99;100612.28;4872651;29;46424;-76
2022/09/23 22:46:57;;;;;;;;;8.50;8.00;;;;;17.90;48.84;100600.78;4869572;29;45807;-74
2022/09/23 22:49:23;;;;;;;;;7.75;7.75;;;;;17.92;48.94;100598.00;4869631;29;46183;-75
2022/09/23 22:51:52;;;;;;;;;9.00;8.00;;;;;17.92;49.26;100593.50;4873538;29;45881;-76
2022/09/23 22:54:18;;;;;;;;;9.50;8.75;;;;;17.92;49.52;100590.84;4862907;29;45763;-75
2022/09/23 22:56:43;;;;;;;;;9.50;8.50;;;;;17.76;49.68;100571.41;4870166;29;46132;-75
2022/09/23 22:59:11;;;;;;;;;12.00;10.00;;;;;17.90;49.77;100587.53;4858442;29;45550;-75
2022/09/23 23:01:40;;;;;;;;;7.75;7.75;;;;;17.88;49.92;100580.72;4850903;29;48603;-76
2022/09/23 23:04:09;;;;;;;;;10.50;9.00;;;;;17.88;49.74;100575.41;4874132;29;46654;-75
2022/09/23 23:06:35;;;;;;;;;8.00;6.75;;;;;17.87;49.75;100584.34;4853081;29;45791;-76
2022/09/23 23:09:30;;;;;;;;;9.50;8.50;;;;;17.92;49.56;100582.09;4881285;29;45692;-77
2022/09/23 23:12:01;;;;;;;;;8.75;8.50;;;;;17.87;49.87;100587.84;4810100;29;45861;-76
2022/09/23 23:14:27;;;;;;;;;8.25;8.25;;;;;17.85;50.00;100587.19;4790752;29;48292;-75
2022/09/23 23:16:53;;;;;;;;;10.00;8.00;;;;;17.81;50.20;100585.84;4818292;29;45823;-76
2022/09/23 23:19:19;;;;;;;;;8.75;8.75;;;;;17.84;50.24;100582.88;4817584;29;45876;-76
2022/09/23 23:21:45;;;;;;;;;8.00;7.50;;;;;17.76;50.02;100571.41;4811876;29;45770;-76
2022/09/23 23:24:16;;;;;;;;;10.75;8.75;;;;;17.89;50.50;100585.88;4817155;29;47290;-74
2022/09/23 23:26:44;;;;;;;;;8.75;8.50;;;;;17.79;50.24;100571.06;4819774;29;45814;-76
2022/09/23 23:29:11;;;;;;;;;8.75;8.75;;;;;17.90;50.45;100579.59;4821859;29;45710;-74
2022/09/23 23:31:37;;;;;;;;;10.00;8.75;;;;;17.85;50.33;100576.59;4821386;29;46380;-76
2022/09/23 23:34:03;;;;;;;;;9.75;9.75;;;;;17.85;50.58;100576.59;4820625;29;46894;-75
2022/09/23 23:36:29;;;;;;;;;11.00;10.00;;;;;17.83;51.10;100565.28;4820523;29;45811;-77
2022/09/23 23:38:55;;;;;;;;;9.50;8.00;;;;;17.80;50.97;100570.09;4821301;29;45811;-76
2022/09/23 23:41:21;;;;;;;;;11.50;10.00;;;;;17.78;50.99;100564.09;4805642;29;46387;-75
2022/09/23 23:43:57;;;;;;;;;9.00;8.75;;;;;17.68;51.39;100537.72;4820241;29;47232;-75
2022/09/23 23:46:27;;;;;;;;;9.25;9.00;;;;;17.77;51.66;100555.31;4821663;29;45760;-78
2022/09/23 23:48:56;;;;;;;;;9.25;8.25;;;;;17.78;51.21;100556.16;4857915;29;46012;-76
2022/09/23 23:51:22;;;;;;;;;8.75;8.00;;;;;17.68;51.37;100547.47;4879472;29;47627;-76
2022/09/23 23:53:48;;;;;;;;;9.75;9.00;;;;;17.71;51.88;100555.09;4862039;29;46320;-76
2022/09/23 23:56:20;;;;;;;;;9.75;8.75;;;;;17.70;51.68;100556.13;4875780;29;46071;-77
2022/09/23 23:58:45;;;;;;;;;7.75;7.75;;;;;17.58;51.79;100543.09;4870422;29;45939;-76
